sensor_id;sensor_type;location;lat;lon;timestamp;temperature;humidity
3281;DHT22;1652;51.318;6.202;2023-04-01T00:01:32;9.80;99.90
3281;DHT22;1652;51.318;6.202;2023-04-01T00:03:59;9.80;99.90
3281;DHT22;1652;51.318;6.202;2023-04-01T00:06:28;9.80;99.90
3281;DHT22;1652;51.318;6.202;2023-04-01T00:08:56;9.80;99.90
3281;DHT22;1652;51.318;6.202;2023-04-01T00:11:23;9.80;99.90
3281;DHT22;1652;51.318;6.202;2023-04-01T00:13:50;9.80;99.90
3281;DHT22;1652;51.318;6.202;2023-04-01T00:16:17;9.80;99.90
3281;DHT22;1652;51.318;6.202;2023-04-01T00:18:49;9.80;99.90
3281;DHT22;1652;51.318;6.202;2023-04-01T00:21:17;9.90;99.90
3281;DHT22;1652;51.318;6.202;2023-04-01T00:23:44;9.90;99.90
3281;DHT22;1652;51.318;6.202;2023-04-01T00:26:11;9.80;99.90
3281;DHT22;1652;51.318;6.202;2023-04-01T00:28:39;9.80;99.90
3281;DHT22;1652;51.318;6.202;2023-04-01T00:31:08;9.80;99.90
3281;DHT22;1652;51.318;6.202;2023-04-01T00:33:35;9.70;99.90
3281;DHT22;1652;51.318;6.202;2023-04-01T00:36:17;9.70;99.90
3281;DHT22;1652;51.318;6.202;2023-04-01T00:38:44;9.70;99.90
3281;DHT22;1652;51.318;6.202;2023-04-01T00:41:14;9.80;99.90
3281;DHT22;1652;51.318;6.202;2023-04-01T00:43:43;9.80;99.90
3281;DHT22;1652;51.318;6.202;2023-04-01T00:46:10;9.80;99.90
3281;DHT22;1652;51.318;6.202;2023-04-01T00:48:49;9.70;99.90
3281;DHT22;1652;51.318;6.202;2023-04-01T00:51:35;9.80;99.90
3281;DHT22;1652;51.318;6.202;2023-04-01T00:54:05;9.80;99.90
3281;DHT22;1652;51.318;6.202;2023-04-01T00:56:48;9.70;99.90
3281;DHT22;1652;51.318;6.202;2023-04-01T00:59:23;9.80;99.90
3281;DHT22;1652;51.318;6.202;2023-04-01T01:01:50;9.70;99.90
3281;DHT22;1652;51.318;6.202;2023-04-01T01:04:29;9.70;99.90
3281;DHT22;1652;51.318;6.202;2023-04-01T01:07:01;9.70;99.90
3281;DHT22;1652;51.318;6.202;2023-04-01T01:12:22;9.70;99.90
3281;DHT22;1652;51.318;6.202;2023-04-01T01:18:07;9.70;99.90
3281;DHT22;1652;51.318;6.202;2023-04-01T01:21:14;9.70;99.90
3281;DHT22;1652;51.318;6.202;2023-04-01T01:29:58;9.70;99.90
3281;DHT22;1652;51.318;6.202;2023-04-01T01:38:14;9.70;99.90
3281;DHT22;1652;51.318;6.202;2023-04-01T01:40:45;9.60;99.90
3281;DHT22;1652;51.318;6.202;2023-04-01T01:43:16;9.60;99.90
3281;DHT22;1652;51.318;6.202;2023-04-01T01:45:49;9.60;99.90
3281;DHT22;1652;51.318;6.202;2023-04-01T01:48:17;9.60;99.90
3281;DHT22;1652;51.318;6.202;2023-04-01T01:50:46;9.60;99.90
3281;DHT22;1652;51.318;6.202;2023-04-01T01:53:15;9.60;99.90
3281;DHT22;1652;51.318;6.202;2023-04-01T01:55:44;9.60;99.90
3281;DHT22;1652;51.318;6.202;2023-04-01T01:58:24;9.60;99.90
3281;DHT22;1652;51.318;6.202;2023-04-01T02:00:57;9.70;99.90
3281;DHT22;1652;51.318;6.202;2023-04-01T02:03:27;9.60;99.90
3281;DHT22;1652;51.318;6.202;2023-04-01T02:05:56;9.70;99.90
3281;DHT22;1652;51.318;6.202;2023-04-01T02:11:00;9.70;99.90
3281;DHT22;1652;51.318;6.202;2023-04-01T02:16:26;9.70;99.90
3281;DHT22;1652;51.318;6.202;2023-04-01T02:18:55;9.70;99.90
3281;DHT22;1652;51.318;6.202;2023-04-01T02:21:25;9.70;99.90
3281;DHT22;1652;51.318;6.202;2023-04-01T02:23:54;9.70;99.90
3281;DHT22;1652;51.318;6.202;2023-04-01T02:26:24;9.60;99.90
3281;DHT22;1652;51.318;6.202;2023-04-01T02:28:54;9.70;99.90
3281;DHT22;1652;51.318;6.202;2023-04-01T02:31:22;9.60;99.90
3281;DHT22;1652;51.318;6.202;2023-04-01T02:33:50;9.70;99.90
3281;DHT22;1652;51.318;6.202;2023-04-01T02:36:17;9.70;99.90
3281;DHT22;1652;51.318;6.202;2023-04-01T02:38:45;9.70;99.90
3281;DHT22;1652;51.318;6.202;2023-04-01T02:41:13;9.60;99.90
3281;DHT22;1652;51.318;6.202;2023-04-01T02:43:40;9.70;99.90
3281;DHT22;1652;51.318;6.202;2023-04-01T02:46:07;9.60;99.90
3281;DHT22;1652;51.318;6.202;2023-04-01T02:48:34;9.60;99.90
3281;DHT22;1652;51.318;6.202;2023-04-01T02:51:01;9.60;99.90
3281;DHT22;1652;51.318;6.202;2023-04-01T02:53:28;9.60;99.90
3281;DHT22;1652;51.318;6.202;2023-04-01T02:55:55;9.60;99.90
3281;DHT22;1652;51.318;6.202;2023-04-01T02:58:22;9.60;99.90
3281;DHT22;1652;51.318;6.202;2023-04-01T03:00:49;9.60;99.90
3281;DHT22;1652;51.318;6.202;2023-04-01T03:03:16;9.60;99.90
3281;DHT22;1652;51.318;6.202;2023-04-01T03:05:43;9.60;99.90
3281;DHT22;1652;51.318;6.202;2023-04-01T03:08:10;9.70;99.90
3281;DHT22;1652;51.318;6.202;2023-04-01T03:10:37;9.60;99.90
3281;DHT22;1652;51.318;6.202;2023-04-01T03:13:04;9.60;99.90
3281;DHT22;1652;51.318;6.202;2023-04-01T03:15:31;9.60;99.90
3281;DHT22;1652;51.318;6.202;2023-04-01T03:17:58;9.60;99.90
3281;DHT22;1652;51.318;6.202;2023-04-01T03:20:25;9.60;99.90
3281;DHT22;1652;51.318;6.202;2023-04-01T03:22:52;9.60;99.90
3281;DHT22;1652;51.318;6.202;2023-04-01T03:25:18;9.60;99.90
3281;DHT22;1652;51.318;6.202;2023-04-01T03:27:45;9.60;99.90
3281;DHT22;1652;51.318;6.202;2023-04-01T03:30:12;9.60;99.90
3281;DHT22;1652;51.318;6.202;2023-04-01T03:32:39;9.70;99.90
3281;DHT22;1652;51.318;6.202;2023-04-01T03:35:07;9.60;99.90
3281;DHT22;1652;51.318;6.202;2023-04-01T03:37:34;9.60;99.90
3281;DHT22;1652;51.318;6.202;2023-04-01T03:40:01;9.60;99.90
3281;DHT22;1652;51.318;6.202;2023-04-01T03:42:27;9.60;99.90
3281;DHT22;1652;51.318;6.202;2023-04-01T03:44:54;9.60;99.90
3281;DHT22;1652;51.318;6.202;2023-04-01T03:47:21;9.60;99.90
3281;DHT22;1652;51.318;6.202;2023-04-01T03:49:48;9.60;99.90
3281;DHT22;1652;51.318;6.202;2023-04-01T03:52:15;9.60;99.90
3281;DHT22;1652;51.318;6.202;2023-04-01T03:54:42;9.50;99.90
3281;DHT22;1652;51.318;6.202;2023-04-01T03:57:09;9.60;99.90
3281;DHT22;1652;51.318;6.202;2023-04-01T03:59:36;9.50;99.90
3281;DHT22;1652;51.318;6.202;2023-04-01T04:02:03;9.60;99.90
3281;DHT22;1652;51.318;6.202;2023-04-01T04:04:30;9.60;99.90
3281;DHT22;1652;51.318;6.202;2023-04-01T04:06:57;9.50;99.90
3281;DHT22;1652;51.318;6.202;2023-04-01T04:09:24;9.60;99.90
3281;DHT22;1652;51.318;6.202;2023-04-01T04:11:51;9.60;99.90
3281;DHT22;1652;51.318;6.202;2023-04-01T04:14:18;9.50;99.90
3281;DHT22;1652;51.318;6.202;2023-04-01T04:16:45;9.50;99.90
3281;DHT22;1652;51.318;6.202;2023-04-01T04:19:12;9.50;99.90
3281;DHT22;1652;51.318;6.202;2023-04-01T04:21:40;9.60;99.90
3281;DHT22;1652;51.318;6.202;2023-04-01T04:24:07;9.50;99.90
3281;DHT22;1652;51.318;6.202;2023-04-01T04:26:34;9.50;99.90
3281;DHT22;1652;51.318;6.202;2023-04-01T04:29:02;9.50;99.90
3281;DHT22;1652;51.318;6.202;2023-04-01T04:31:29;9.50;99.90
3281;DHT22;1652;51.318;6.202;2023-04-01T04:33:56;9.50;99.90
3281;DHT22;1652;51.318;6.202;2023-04-01T04:36:23;9.50;99.90
3281;DHT22;1652;51.318;6.202;2023-04-01T04:38:50;9.60;99.90
3281;DHT22;1652;51.318;6.202;2023-04-01T04:41:18;9.50;99.90
3281;DHT22;1652;51.318;6.202;2023-04-01T04:43:50;9.50;99.90
3281;DHT22;1652;51.318;6.202;2023-04-01T04:46:17;9.50;99.90
3281;DHT22;1652;51.318;6.202;2023-04-01T04:48:44;9.50;99.90
3281;DHT22;1652;51.318;6.202;2023-04-01T04:51:16;9.50;99.90
3281;DHT22;1652;51.318;6.202;2023-04-01T04:53:44;9.50;99.90
3281;DHT22;1652;51.318;6.202;2023-04-01T04:56:11;9.50;99.90
3281;DHT22;1652;51.318;6.202;2023-04-01T04:58:40;9.50;99.90
3281;DHT22;1652;51.318;6.202;2023-04-01T05:01:09;9.50;99.90
3281;DHT22;1652;51.318;6.202;2023-04-01T05:03:36;9.50;99.90
3281;DHT22;1652;51.318;6.202;2023-04-01T05:06:05;9.50;99.90
3281;DHT22;1652;51.318;6.202;2023-04-01T05:08:32;9.50;99.90
3281;DHT22;1652;51.318;6.202;2023-04-01T05:11:00;9.50;99.90
3281;DHT22;1652;51.318;6.202;2023-04-01T05:13:28;9.50;99.90
3281;DHT22;1652;51.318;6.202;2023-04-01T05:15:55;9.50;99.90
3281;DHT22;1652;51.318;6.202;2023-04-01T05:18:22;9.50;99.90
3281;DHT22;1652;51.318;6.202;2023-04-01T05:20:51;9.40;99.90
3281;DHT22;1652;51.318;6.202;2023-04-01T05:23:18;9.40;99.90
3281;DHT22;1652;51.318;6.202;2023-04-01T05:25:48;9.40;99.90
3281;DHT22;1652;51.318;6.202;2023-04-01T05:28:17;9.40;99.90
3281;DHT22;1652;51.318;6.202;2023-04-01T05:30:44;9.50;99.90
3281;DHT22;1652;51.318;6.202;2023-04-01T05:33:12;9.50;99.90
3281;DHT22;1652;51.318;6.202;2023-04-01T05:35:39;9.50;99.90
3281;DHT22;1652;51.318;6.202;2023-04-01T05:38:06;9.50;99.90
3281;DHT22;1652;51.318;6.202;2023-04-01T05:40:33;9.50;99.90
3281;DHT22;1652;51.318;6.202;2023-04-01T05:43:00;9.50;99.90
3281;DHT22;1652;51.318;6.202;2023-04-01T05:45:27;9.40;99.90
3281;DHT22;1652;51.318;6.202;2023-04-01T05:47:54;9.40;99.90
3281;DHT22;1652;51.318;6.202;2023-04-01T05:50:22;9.40;99.90
3281;DHT22;1652;51.318;6.202;2023-04-01T05:52:49;9.40;99.90
3281;DHT22;1652;51.318;6.202;2023-04-01T05:55:15;9.40;99.90
3281;DHT22;1652;51.318;6.202;2023-04-01T05:57:45;9.40;99.90
3281;DHT22;1652;51.318;6.202;2023-04-01T06:00:12;9.50;99.90
3281;DHT22;1652;51.318;6.202;2023-04-01T06:02:39;9.50;99.90
3281;DHT22;1652;51.318;6.202;2023-04-01T06:05:20;9.40;99.90
3281;DHT22;1652;51.318;6.202;2023-04-01T06:10:49;9.40;99.90
3281;DHT22;1652;51.318;6.202;2023-04-01T06:30:26;9.50;99.90
3281;DHT22;1652;51.318;6.202;2023-04-01T06:33:11;9.50;99.90
3281;DHT22;1652;51.318;6.202;2023-04-01T06:47:28;9.60;99.90
3281;DHT22;1652;51.318;6.202;2023-04-01T06:52:43;9.60;99.90
3281;DHT22;1652;51.318;6.202;2023-04-01T06:55:37;9.70;99.90
3281;DHT22;1652;51.318;6.202;2023-04-01T06:58:18;9.70;99.90
3281;DHT22;1652;51.318;6.202;2023-04-01T07:00:50;9.70;99.90
3281;DHT22;1652;51.318;6.202;2023-04-01T07:03:27;9.70;99.90
3281;DHT22;1652;51.318;6.202;2023-04-01T07:06:01;9.70;99.90
3281;DHT22;1652;51.318;6.202;2023-04-01T07:08:33;9.70;99.90
3281;DHT22;1652;51.318;6.202;2023-04-01T07:11:06;9.70;99.90
3281;DHT22;1652;51.318;6.202;2023-04-01T07:13:45;9.70;99.90
3281;DHT22;1652;51.318;6.202;2023-04-01T07:16:31;9.70;99.90
3281;DHT22;1652;51.318;6.202;2023-04-01T07:19:06;9.70;99.90
3281;DHT22;1652;51.318;6.202;2023-04-01T07:21:42;9.70;99.90
3281;DHT22;1652;51.318;6.202;2023-04-01T07:24:23;9.70;99.90
3281;DHT22;1652;51.318;6.202;2023-04-01T07:26:56;9.80;99.90
3281;DHT22;1652;51.318;6.202;2023-04-01T07:29:25;9.80;99.90
3281;DHT22;1652;51.318;6.202;2023-04-01T07:32:21;9.70;99.90
3281;DHT22;1652;51.318;6.202;2023-04-01T07:43:22;9.90;99.90
3281;DHT22;1652;51.318;6.202;2023-04-01T07:46:12;9.90;99.90
3281;DHT22;1652;51.318;6.202;2023-04-01T08:07:45;10.00;99.90
3281;DHT22;1652;51.318;6.202;2023-04-01T08:10:32;9.90;99.90
3281;DHT22;1652;51.318;6.202;2023-04-01T08:18:54;10.00;99.90
3281;DHT22;1652;51.318;6.202;2023-04-01T08:21:41;10.10;99.90
3281;DHT22;1652;51.318;6.202;2023-04-01T08:24:35;10.20;99.90
3281;DHT22;1652;51.318;6.202;2023-04-01T08:27:28;10.30;99.90
3281;DHT22;1652;51.318;6.202;2023-04-01T08:30:18;10.40;99.90
3281;DHT22;1652;51.318;6.202;2023-04-01T08:33:12;10.50;99.90
3281;DHT22;1652;51.318;6.202;2023-04-01T08:35:50;10.60;99.90
3281;DHT22;1652;51.318;6.202;2023-04-01T08:38:53;10.80;99.90
3281;DHT22;1652;51.318;6.202;2023-04-01T08:44:22;11.00;99.90
3281;DHT22;1652;51.318;6.202;2023-04-01T08:59:56;10.80;99.90
3281;DHT22;1652;51.318;6.202;2023-04-01T09:08:27;10.70;99.90
3281;DHT22;1652;51.318;6.202;2023-04-01T09:22:22;10.60;99.90
3281;DHT22;1652;51.318;6.202;2023-04-01T09:35:50;11.30;99.90
3281;DHT22;1652;51.318;6.202;2023-04-01T09:38:35;11.30;99.90
3281;DHT22;1652;51.318;6.202;2023-04-01T09:45:05;11.30;99.90
3281;DHT22;1652;51.318;6.202;2023-04-01T10:23:41;11.10;99.90
3281;DHT22;1652;51.318;6.202;2023-04-01T10:34:48;11.10;99.90
3281;DHT22;1652;51.318;6.202;2023-04-01T10:59:36;10.90;99.90
3281;DHT22;1652;51.318;6.202;2023-04-01T11:08:31;10.90;99.90
3281;DHT22;1652;51.318;6.202;2023-04-01T11:25:50;11.10;99.90
3281;DHT22;1652;51.318;6.202;2023-04-01T11:50:58;10.70;99.90
3281;DHT22;1652;51.318;6.202;2023-04-01T11:54:04;10.70;99.90
3281;DHT22;1652;51.318;6.202;2023-04-01T12:02:12;10.70;99.90
3281;DHT22;1652;51.318;6.202;2023-04-01T12:11:04;10.90;99.90
3281;DHT22;1652;51.318;6.202;2023-04-01T12:24:49;11.20;99.90
3281;DHT22;1652;51.318;6.202;2023-04-01T12:27:32;11.20;99.90
3281;DHT22;1652;51.318;6.202;2023-04-01T12:38:23;11.30;99.90
3281;DHT22;1652;51.318;6.202;2023-04-01T12:46:39;11.10;99.90
3281;DHT22;1652;51.318;6.202;2023-04-01T12:49:37;11.10;99.90
3281;DHT22;1652;51.318;6.202;2023-04-01T13:01:01;11.10;99.90
3281;DHT22;1652;51.318;6.202;2023-04-01T13:03:43;11.10;99.90
3281;DHT22;1652;51.318;6.202;2023-04-01T13:20:35;11.60;99.90
3281;DHT22;1652;51.318;6.202;2023-04-01T13:23:17;11.70;99.90
3281;DHT22;1652;51.318;6.202;2023-04-01T13:26:02;12.00;99.90
3281;DHT22;1652;51.318;6.202;2023-04-01T13:29:16;12.00;99.90
3281;DHT22;1652;51.318;6.202;2023-04-01T13:41:22;12.20;99.90
3281;DHT22;1652;51.318;6.202;2023-04-01T13:44:00;12.20;99.90
3281;DHT22;1652;51.318;6.202;2023-04-01T13:46:34;12.20;99.90
3281;DHT22;1652;51.318;6.202;2023-04-01T13:51:54;12.20;99.90
3281;DHT22;1652;51.318;6.202;2023-04-01T14:05:32;12.10;99.90
3281;DHT22;1652;51.318;6.202;2023-04-01T14:14:07;11.80;99.90
3281;DHT22;1652;51.318;6.202;2023-04-01T14:20:02;11.80;99.90
3281;DHT22;1652;51.318;6.202;2023-04-01T14:22:50;11.80;99.90
3281;DHT22;1652;51.318;6.202;2023-04-01T14:25:41;11.70;99.90
3281;DHT22;1652;51.318;6.202;2023-04-01T14:33:33;11.60;99.90
3281;DHT22;1652;51.318;6.202;2023-04-01T14:36:29;11.60;99.90
3281;DHT22;1652;51.318;6.202;2023-04-01T14:44:46;11.50;99.90
3281;DHT22;1652;51.318;6.202;2023-04-01T14:50:46;11.50;99.90
3281;DHT22;1652;51.318;6.202;2023-04-01T14:53:27;11.50;99.90
3281;DHT22;1652;51.318;6.202;2023-04-01T14:56:00;11.60;99.90
3281;DHT22;1652;51.318;6.202;2023-04-01T15:09:58;11.40;99.90
3281;DHT22;1652;51.318;6.202;2023-04-01T15:12:42;11.20;99.90
3281;DHT22;1652;51.318;6.202;2023-04-01T15:15:39;11.20;99.90
3281;DHT22;1652;51.318;6.202;2023-04-01T15:18:39;11.20;99.90
3281;DHT22;1652;51.318;6.202;2023-04-01T15:29:40;11.10;99.90
3281;DHT22;1652;51.318;6.202;2023-04-01T15:32:26;11.20;99.90
3281;DHT22;1652;51.318;6.202;2023-04-01T15:53:55;10.80;99.90
3281;DHT22;1652;51.318;6.202;2023-04-01T15:56:35;10.70;99.90
3281;DHT22;1652;51.318;6.202;2023-04-01T16:02:18;10.70;99.90
3281;DHT22;1652;51.318;6.202;2023-04-01T16:10:31;10.70;99.90
3281;DHT22;1652;51.318;6.202;2023-04-01T16:16:05;10.70;99.90
3281;DHT22;1652;51.318;6.202;2023-04-01T16:21:36;10.90;99.90
3281;DHT22;1652;51.318;6.202;2023-04-01T16:24:19;10.90;99.90
3281;DHT22;1652;51.318;6.202;2023-04-01T16:35:39;11.00;99.90
3281;DHT22;1652;51.318;6.202;2023-04-01T16:43:30;10.90;99.90
3281;DHT22;1652;51.318;6.202;2023-04-01T16:57:10;10.60;99.90
3281;DHT22;1652;51.318;6.202;2023-04-01T17:00:00;10.60;99.90
3281;DHT22;1652;51.318;6.202;2023-04-01T17:02:42;10.60;99.90
3281;DHT22;1652;51.318;6.202;2023-04-01T17:05:12;10.60;99.90
3281;DHT22;1652;51.318;6.202;2023-04-01T17:24:23;10.40;99.90
3281;DHT22;1652;51.318;6.202;2023-04-01T17:47:40;10.20;99.90
3281;DHT22;1652;51.318;6.202;2023-04-01T17:50:30;10.30;99.90
3281;DHT22;1652;51.318;6.202;2023-04-01T17:53:17;10.20;99.90
3281;DHT22;1652;51.318;6.202;2023-04-01T17:58:46;10.20;99.90
3281;DHT22;1652;51.318;6.202;2023-04-01T18:01:36;10.10;99.90
3281;DHT22;1652;51.318;6.202;2023-04-01T18:04:32;10.20;99.90
3281;DHT22;1652;51.318;6.202;2023-04-01T18:07:20;10.10;99.90
3281;DHT22;1652;51.318;6.202;2023-04-01T18:10:13;10.10;99.90
3281;DHT22;1652;51.318;6.202;2023-04-01T18:13:11;10.10;99.90
3281;DHT22;1652;51.318;6.202;2023-04-01T18:18:55;10.00;99.90
3281;DHT22;1652;51.318;6.202;2023-04-01T18:27:04;9.90;99.90
3281;DHT22;1652;51.318;6.202;2023-04-01T18:29:49;9.90;99.90
3281;DHT22;1652;51.318;6.202;2023-04-01T18:48:51;9.80;99.90
3281;DHT22;1652;51.318;6.202;2023-04-01T18:51:36;9.80;99.90
3281;DHT22;1652;51.318;6.202;2023-04-01T18:54:32;9.80;99.90
3281;DHT22;1652;51.318;6.202;2023-04-01T18:57:10;9.80;99.90
3281;DHT22;1652;51.318;6.202;2023-04-01T18:59:45;9.80;99.90
3281;DHT22;1652;51.318;6.202;2023-04-01T19:05:11;9.80;99.90
3281;DHT22;1652;51.318;6.202;2023-04-01T19:13:19;9.90;99.90
3281;DHT22;1652;51.318;6.202;2023-04-01T19:19:20;9.80;99.90
3281;DHT22;1652;51.318;6.202;2023-04-01T19:21:56;9.80;99.90
3281;DHT22;1652;51.318;6.202;2023-04-01T19:38:31;9.90;99.90
3281;DHT22;1652;51.318;6.202;2023-04-01T19:46:47;9.80;99.90
3281;DHT22;1652;51.318;6.202;2023-04-01T20:00:31;9.60;99.90
3281;DHT22;1652;51.318;6.202;2023-04-01T20:11:59;9.60;99.90
3281;DHT22;1652;51.318;6.202;2023-04-01T20:14:48;9.50;99.90
3281;DHT22;1652;51.318;6.202;2023-04-01T20:17:27;9.40;99.90
3281;DHT22;1652;51.318;6.202;2023-04-01T20:20:24;9.40;99.90
3281;DHT22;1652;51.318;6.202;2023-04-01T20:23:06;9.40;99.90
3281;DHT22;1652;51.318;6.202;2023-04-01T20:25:48;9.40;99.90
3281;DHT22;1652;51.318;6.202;2023-04-01T20:37:12;9.30;99.90
3281;DHT22;1652;51.318;6.202;2023-04-01T20:39:55;9.30;99.90
3281;DHT22;1652;51.318;6.202;2023-04-01T20:48:30;9.20;99.90
3281;DHT22;1652;51.318;6.202;2023-04-01T20:51:05;9.20;99.90
3281;DHT22;1652;51.318;6.202;2023-04-01T20:54:00;9.10;99.90
3281;DHT22;1652;51.318;6.202;2023-04-01T20:56:47;9.00;99.90
3281;DHT22;1652;51.318;6.202;2023-04-01T20:59:44;8.90;99.90
3281;DHT22;1652;51.318;6.202;2023-04-01T21:02:17;8.90;99.90
3281;DHT22;1652;51.318;6.202;2023-04-01T21:05:11;8.90;99.90
3281;DHT22;1652;51.318;6.202;2023-04-01T21:10:43;8.80;99.90
3281;DHT22;1652;51.318;6.202;2023-04-01T21:13:53;8.80;99.90
3281;DHT22;1652;51.318;6.202;2023-04-01T21:16:39;8.80;99.90
3281;DHT22;1652;51.318;6.202;2023-04-01T21:36:03;8.70;99.90
3281;DHT22;1652;51.318;6.202;2023-04-01T21:44:43;8.60;99.90
3281;DHT22;1652;51.318;6.202;2023-04-01T21:47:28;8.50;99.90
3281;DHT22;1652;51.318;6.202;2023-04-01T21:50:18;8.40;99.90
3281;DHT22;1652;51.318;6.202;2023-04-01T21:55:59;8.40;99.90
3281;DHT22;1652;51.318;6.202;2023-04-01T21:58:42;8.40;99.90
3281;DHT22;1652;51.318;6.202;2023-04-01T22:15:23;8.20;99.90
3281;DHT22;1652;51.318;6.202;2023-04-01T22:18:06;8.20;99.90
3281;DHT22;1652;51.318;6.202;2023-04-01T22:31:30;8.20;99.90
3281;DHT22;1652;51.318;6.202;2023-04-01T22:36:54;8.20;99.90
3281;DHT22;1652;51.318;6.202;2023-04-01T22:40:00;8.10;99.90
3281;DHT22;1652;51.318;6.202;2023-04-01T22:42:44;8.10;99.90
3281;DHT22;1652;51.318;6.202;2023-04-01T22:51:16;8.10;99.90
3281;DHT22;1652;51.318;6.202;2023-04-01T22:53:57;8.00;99.90
3281;DHT22;1652;51.318;6.202;2023-04-01T22:56:35;7.90;99.90
3281;DHT22;1652;51.318;6.202;2023-04-01T23:02:06;7.80;99.90
3281;DHT22;1652;51.318;6.202;2023-04-01T23:04:40;7.70;99.90
3281;DHT22;1652;51.318;6.202;2023-04-01T23:10:26;7.70;99.90
3281;DHT22;1652;51.318;6.202;2023-04-01T23:13:00;7.60;99.90
3281;DHT22;1652;51.318;6.202;2023-04-01T23:15:29;7.60;99.90
3281;DHT22;1652;51.318;6.202;2023-04-01T23:21:11;7.60;99.90
3281;DHT22;1652;51.318;6.202;2023-04-01T23:23:45;7.60;99.90
3281;DHT22;1652;51.318;6.202;2023-04-01T23:26:24;7.50;99.90
3281;DHT22;1652;51.318;6.202;2023-04-01T23:28:57;7.40;99.90
3281;DHT22;1652;51.318;6.202;2023-04-01T23:31:40;7.50;99.90
3281;DHT22;1652;51.318;6.202;2023-04-01T23:36:43;7.50;99.90
3281;DHT22;1652;51.318;6.202;2023-04-01T23:39:40;7.50;99.90
3281;DHT22;1652;51.318;6.202;2023-04-01T23:44:42;7.30;99.90
3281;DHT22;1652;51.318;6.202;2023-04-01T23:47:16;7.30;99.90
3281;DHT22;1652;51.318;6.202;2023-04-01T23:50:11;7.30;99.90
3281;DHT22;1652;51.318;6.202;2023-04-01T23:52:42;7.30;99.90
3281;DHT22;1652;51.318;6.202;2023-04-01T23:55:22;7.20;99.90
